Time;durP1;ratioP1;P1;durP2;ratioP2;P2;SDS_P1;SDS_P2;PMS_P1;PMS_P2;Temp;Humidity;BMP_temperature;BMP_pressure;BME280_temperature;BME280_humidity;BME280_pressure;Samples;Min_cycle;Max_cycle;Signal;HPM_P1;HPM_P2
2022/06/04 00:00:56;;;;;;;7.93;4.37;;;;;;;20.63;70.63;99606.38;5088340;28;20247;-79
2022/06/04 00:03:23;;;;;;;8.97;4.30;;;;;;;20.51;71.47;99600.66;5088376;28;20219;-80
2022/06/04 00:05:52;;;;;;;5.07;3.90;;;;;;;20.42;71.55;99602.44;5088326;28;20321;-80
2022/06/04 00:08:18;;;;;;;4.70;4.10;;;;;;;20.37;71.84;99596.09;5088288;28;20230;-84
2022/06/04 00:16:17;;;;;;;6.00;4.10;;;;;;;20.39;72.27;99594.97;5091705;28;20749;-84
2022/06/04 00:18:44;;;;;;;8.43;4.03;;;;;;;20.35;72.12;99599.66;5091857;28;20216;-79
2022/06/04 00:21:12;;;;;;;9.43;4.13;;;;;;;20.30;72.70;99593.31;5091787;28;20255;-84
2022/06/04 00:23:39;;;;;;;5.63;4.57;;;;;;;20.28;72.55;99598.69;5091628;28;20216;-84
2022/06/04 00:26:07;;;;;;;5.97;4.37;;;;;;;20.19;73.10;99601.41;5091652;28;20257;-80
2022/06/04 00:28:34;;;;;;;6.93;4.30;;;;;;;20.14;72.88;99591.53;5091608;28;20240;-79
2022/06/04 00:31:01;;;;;;;8.33;4.03;;;;;;;20.10;73.26;99601.44;5091646;28;20241;-80
2022/06/04 00:33:27;;;;;;;5.10;4.00;;;;;;;20.09;73.05;99604.16;5091563;28;20207;-84
2022/06/04 00:35:57;;;;;;;7.33;4.17;;;;;;;20.12;73.50;99603.84;5091672;28;20238;-84
2022/06/04 00:38:26;;;;;;;7.77;4.63;;;;;;;20.03;73.41;99597.81;5091385;28;20760;-80
2022/06/04 00:41:02;;;;;;;6.33;4.00;;;;;;;20.09;72.68;99604.97;5091301;28;20247;-84
2022/06/04 00:43:28;;;;;;;4.70;4.00;;;;;;;20.10;72.93;99601.44;5091572;28;20230;-84
2022/06/04 00:46:26;;;;;;;10.43;4.80;;;;;;;20.11;72.95;99597.84;5091469;28;20240;-79
2022/06/04 00:48:52;;;;;;;7.10;4.53;;;;;;;20.19;72.96;99598.81;5091421;28;20218;-80
2022/06/04 00:51:20;;;;;;;6.27;4.23;;;;;;;20.17;72.57;99593.00;5091215;28;20234;-84
2022/06/04 00:53:46;;;;;;;6.70;4.87;;;;;;;20.04;73.28;99594.28;5091577;28;20222;-84
2022/06/04 00:56:29;;;;;;;5.97;4.07;;;;;;;20.06;73.33;99594.09;5091498;28;20303;-79
2022/06/04 00:59:12;;;;;;;7.50;4.80;;;;;;;20.02;73.35;99583.25;5091412;28;20240;-79
2022/06/04 01:01:49;;;;;;;7.33;4.30;;;;;;;20.01;74.26;99592.00;5091043;28;20264;-84
2022/06/04 01:07:14;;;;;;;8.80;4.70;;;;;;;20.04;73.77;99583.91;5089915;28;20289;-80
2022/06/04 01:09:52;;;;;;;6.87;4.77;;;;;;;19.96;74.71;99576.09;5091041;28;20221;-79
2022/06/04 01:12:36;;;;;;;7.90;4.20;;;;;;;19.90;75.12;99566.34;5091009;28;20229;-79
2022/06/04 01:15:16;;;;;;;9.10;4.70;;;;;;;19.94;74.90;99570.25;5090905;28;20226;-79
2022/06/04 01:17:57;;;;;;;7.93;4.70;;;;;;;19.95;75.06;99565.84;5091177;28;20231;-80
2022/06/04 01:20:35;;;;;;;8.57;4.77;;;;;;;19.90;75.08;99559.38;5090928;28;20214;-83
2022/06/04 01:23:40;;;;;;;8.40;4.50;;;;;;;19.83;75.38;99563.56;5090788;28;20206;-79
2022/06/04 01:26:38;;;;;;;7.93;4.70;;;;;;;19.85;75.63;99560.81;5090881;28;20727;-79
2022/06/04 01:29:09;;;;;;;7.40;4.73;;;;;;;19.85;75.33;99560.81;5090883;28;20223;-79
2022/06/04 01:31:41;;;;;;;9.10;4.90;;;;;;;19.81;75.67;99556.91;5091123;28;20279;-84
2022/06/04 01:34:13;;;;;;;7.33;4.87;;;;;;;19.83;76.03;99560.16;5090702;28;20208;-84
2022/06/04 01:36:43;;;;;;;6.37;4.60;;;;;;;19.85;75.58;99566.00;5090630;28;20604;-84
2022/06/04 01:39:16;;;;;;;6.90;4.90;;;;;;;19.81;76.15;99564.69;5090528;28;20207;-79
2022/06/04 01:41:47;;;;;;;9.60;4.80;;;;;;;19.80;76.13;99563.88;5090906;28;20238;-80
2022/06/04 01:44:19;;;;;;;10.40;5.03;;;;;;;19.79;76.15;99557.06;5090751;28;20662;-79
2022/06/04 01:46:51;;;;;;;8.10;5.00;;;;;;;19.71;76.66;99558.81;5090593;28;20302;-79
2022/06/04 01:49:22;;;;;;;8.93;4.60;;;;;;;19.73;76.75;99556.91;5090620;28;20234;-84
2022/06/04 01:51:50;;;;;;;6.93;4.50;;;;;;;19.73;76.34;99562.09;5090480;28;20258;-84
2022/06/04 01:54:20;;;;;;;6.77;5.17;;;;;;;19.71;77.27;99558.81;5090441;28;20213;-84
2022/06/04 01:56:52;;;;;;;6.37;5.13;;;;;;;19.62;77.28;99558.78;5090238;28;20241;-84
2022/06/04 01:59:23;;;;;;;6.77;4.87;;;;;;;19.54;77.94;99558.75;5090598;28;20217;-84
2022/06/04 02:01:52;;;;;;;9.73;5.10;;;;;;;19.50;78.16;99557.44;5090223;28;20795;-84
2022/06/04 02:04:23;;;;;;;8.03;4.90;;;;;;;19.52;78.02;99550.31;5090518;28;20283;-80
2022/06/04 02:09:35;;;;;;;8.87;5.17;;;;;;;19.39;78.42;99561.13;5089304;28;20205;-80
2022/06/04 02:12:05;;;;;;;7.70;5.30;;;;;;;19.43;78.31;99569.38;5090192;28;20266;-85
2022/06/04 02:14:31;;;;;;;5.53;4.80;;;;;;;19.47;78.50;99572.50;5090178;28;20595;-84
2022/06/04 02:17:04;;;;;;;6.83;4.93;;;;;;;19.47;78.12;99582.88;5089909;28;20244;-81
2022/06/04 02:19:30;;;;;;;9.83;5.00;;;;;;;19.41;78.56;99584.31;5090146;28;20213;-80
2022/06/04 02:21:56;;;;;;;7.07;4.97;;;;;;;19.44;78.70;99584.00;5089814;28;20235;-85
2022/06/04 02:24:23;;;;;;;6.13;5.03;;;;;;;19.44;78.24;99584.00;5089856;28;20218;-85
2022/06/04 02:26:49;;;;;;;8.60;5.13;;;;;;;19.44;78.84;99586.59;5089599;28;20235;-80
2022/06/04 02:29:17;;;;;;;6.57;5.07;;;;;;;19.43;78.72;99592.72;5089862;28;20284;-80
2022/06/04 02:31:49;;;;;;;8.00;5.17;;;;;;;19.44;78.95;99594.38;5089867;28;20257;-84
2022/06/04 02:34:24;;;;;;;8.03;4.93;;;;;;;19.45;78.56;99591.59;5089262;28;20207;-80
2022/06/04 02:36:58;;;;;;;6.97;4.97;;;;;;;19.44;78.57;99594.38;5089420;28;20234;-85
2022/06/04 02:39:29;;;;;;;7.90;5.20;;;;;;;19.42;78.56;99596.31;5089817;28;20213;-81
2022/06/04 02:42:03;;;;;;;10.87;5.60;;;;;;;19.45;78.49;99596.00;5089670;28;20239;-85
2022/06/04 02:44:34;;;;;;;7.07;5.63;;;;;;;19.40;78.84;99587.84;5089668;28;20226;-85
2022/06/04 02:47:07;;;;;;;6.73;5.20;;;;;;;19.36;78.87;99597.72;5089720;28;20226;-81
2022/06/04 02:49:40;;;;;;;6.60;5.23;;;;;;;19.31;79.58;99591.38;5089767;28;20231;-85
2022/06/04 02:52:09;;;;;;;7.40;5.37;;;;;;;19.16;80.11;99589.34;5089602;28;20233;-82
2022/06/04 02:54:39;;;;;;;8.20;5.20;;;;;;;19.20;79.36;99593.28;5089458;28;20590;-85
2022/06/04 02:57:09;;;;;;;6.60;5.07;;;;;;;19.17;79.72;99591.00;5089369;28;20237;-85
2022/06/04 02:59:35;;;;;;;8.47;5.53;;;;;;;19.23;79.45;99595.56;5089189;28;20217;-81
2022/06/04 03:02:04;;;;;;;10.20;5.07;;;;;;;19.19;79.66;99591.66;5089351;28;20764;-86
2022/06/04 03:04:40;;;;;;;9.17;5.37;;;;;;;19.17;80.26;99596.19;5089138;28;20305;-86
2022/06/04 03:07:08;;;;;;;7.20;5.67;;;;;;;19.15;79.96;99592.94;5089089;28;20247;-85
2022/06/04 03:09:34;;;;;;;7.30;5.43;;;;;;;19.27;79.34;99592.66;5089414;28;20199;-86
2022/06/04 03:12:00;;;;;;;7.50;5.33;;;;;;;19.23;79.45;99597.34;5089056;28;20230;-86
2022/06/04 03:14:27;;;;;;;7.13;5.07;;;;;;;19.31;79.32;99599.16;5089027;28;20298;-86
2022/06/04 03:16:53;;;;;;;11.47;5.50;;;;;;;19.30;79.54;99610.50;5088832;28;20241;-81
2022/06/04 03:19:20;;;;;;;8.40;5.00;;;;;;;19.33;78.95;99600.63;5089314;28;20288;-82
2022/06/04 03:21:46;;;;;;;7.53;5.00;;;;;;;19.34;79.40;99604.03;5088966;28;20232;-81
2022/06/04 03:24:14;;;;;;;11.13;5.00;;;;;;;19.30;79.36;99602.72;5088949;28;20212;-85
2022/06/04 03:26:41;;;;;;;7.97;5.20;;;;;;;19.35;78.81;99606.50;5088552;28;20240;-82
2022/06/04 03:29:08;;;;;;;6.80;5.00;;;;;;;19.44;79.03;99604.75;5089059;28;20215;-85
2022/06/04 03:31:34;;;;;;;7.23;5.10;;;;;;;19.50;78.90;99600.72;5088826;28;20291;-85
2022/06/04 03:34:03;;;;;;;7.47;5.23;;;;;;;19.47;79.56;99596.66;5088921;28;20209;-81
2022/06/04 03:36:29;;;;;;;8.23;5.20;;;;;;;19.44;79.60;99597.78;5088925;28;20232;-81
2022/06/04 03:38:56;;;;;;;5.90;4.97;;;;;;;19.46;79.94;99597.63;5088743;28;20640;-86
2022/06/04 03:41:23;;;;;;;6.63;5.23;;;;;;;19.50;79.69;99593.75;5088714;28;20239;-81
2022/06/04 03:43:52;;;;;;;7.80;5.33;;;;;;;19.47;79.28;99594.06;5088672;28;20221;-81
2022/06/04 03:46:18;;;;;;;8.90;5.33;;;;;;;19.58;79.46;99591.19;5088829;28;20246;-82
2022/06/04 03:48:44;;;;;;;6.70;5.07;;;;;;;19.63;79.46;99596.72;5088536;28;20238;-81
2022/06/04 03:51:11;;;;;;;6.73;5.23;;;;;;;19.67;80.16;99595.47;5088429;28;20739;-86
2022/06/04 03:53:37;;;;;;;7.10;5.37;;;;;;;19.74;80.66;99594.84;5088613;28;20271;-85
2022/06/04 03:56:04;;;;;;;8.77;5.27;;;;;;;19.76;80.67;99588.53;5088649;28;20232;-81
2022/06/04 03:58:30;;;;;;;9.83;5.40;;;;;;;19.83;80.43;99599.06;5089008;28;20211;-85
2022/06/04 04:00:57;;;;;;;6.47;5.33;;;;;;;19.85;81.08;99587.56;5088405;28;20243;-81
2022/06/04 04:03:24;;;;;;;8.03;5.23;;;;;;;19.92;81.02;99592.94;5088303;28;20739;-85
2022/06/04 04:05:53;;;;;;;13.23;5.40;;;;;;;19.98;81.02;99584.50;5088371;28;20772;-83
2022/06/04 04:08:22;;;;;;;7.27;5.70;;;;;;;20.00;81.28;99590.34;5088285;28;20326;-82
2022/06/04 04:10:48;;;;;;;9.87;5.80;;;;;;;20.07;81.84;99591.38;5088234;28;20317;-81
2022/06/04 04:13:16;;;;;;;8.00;5.47;;;;;;;20.20;81.48;99590.06;5090963;28;20226;-82
2022/06/04 04:15:43;;;;;;;7.83;5.33;;;;;;;20.28;80.11;99590.09;5090624;28;20271;-81
2022/06/04 04:18:10;;;;;;;18.77;8.73;;;;;;;20.34;80.26;99592.03;5088401;28;20209;-81
2022/06/04 04:20:38;;;;;;;9.60;5.80;;;;;;;20.47;79.43;99592.34;5088416;28;20672;-81
2022/06/04 04:23:07;;;;;;;7.80;5.10;;;;;;;20.63;78.43;99593.38;5088479;28;20244;-86
2022/06/04 04:25:36;;;;;;;7.43;5.10;;;;;;;20.70;78.11;99591.75;5087969;28;20706;-83
2022/06/04 04:28:04;;;;;;;8.63;4.67;;;;;;;20.79;77.68;99593.34;5088072;28;20232;-81
2022/06/04 04:30:33;;;;;;;10.33;5.50;;;;;;;20.92;76.59;99591.06;5087893;28;20231;-81
2022/06/04 04:32:59;;;;;;;7.20;4.90;;;;;;;21.10;75.93;99582.25;5088292;28;20208;-86
2022/06/04 04:35:28;;;;;;;6.43;4.80;;;;;;;21.22;74.91;99581.72;5087993;28;20238;-82
2022/06/04 04:37:55;;;;;;;6.33;4.57;;;;;;;21.26;74.56;99584.78;5088162;28;20303;-83
2022/06/04 04:40:23;;;;;;;8.30;4.87;;;;;;;21.31;75.55;99573.91;5087785;28;20216;-80
2022/06/04 04:42:51;;;;;;;7.43;4.73;;;;;;;21.33;74.41;99579.75;5088032;28;20706;-82
2022/06/04 04:45:20;;;;;;;7.87;5.17;;;;;;;21.54;74.57;99574.00;5088112;28;20213;-80
2022/06/04 04:47:48;;;;;;;9.70;5.03;;;;;;;21.73;73.60;99583.16;5087860;28;20238;-86
2022/06/04 04:50:17;;;;;;;8.93;4.93;;;;;;;21.84;72.84;99581.00;5087747;28;20275;-83
2022/06/04 04:52:45;;;;;;;6.07;4.90;;;;;;;21.97;72.38;99597.88;5087690;28;20255;-84
2022/06/04 04:55:12;;;;;;;6.57;4.93;;;;;;;22.09;73.22;99593.88;5087702;28;20228;-82
2022/06/04 04:57:38;;;;;;;7.97;5.13;;;;;;;22.28;71.77;99593.47;5087941;28;20233;-85
2022/06/04 05:00:08;;;;;;;7.17;5.00;;;;;;;22.50;70.77;99602.22;5091471;28;20220;-82
2022/06/04 05:02:34;;;;;;;6.97;4.57;;;;;;;22.69;69.62;99594.91;5091139;28;20237;-82
2022/06/04 05:05:01;;;;;;;8.93;5.70;;;;;;;22.79;69.25;99601.50;5091187;28;20624;-84
2022/06/04 05:07:27;;;;;;;9.00;5.00;;;;;;;23.00;69.85;99605.25;5090833;28;20301;-87
2022/06/04 05:09:53;;;;;;;7.03;4.60;;;;;;;23.19;67.51;99616.97;5091178;28;20601;-83
2022/06/04 05:12:20;;;;;;;8.43;4.95;;;;;;;23.40;69.30;99613.63;5090903;28;20256;-86
2022/06/04 05:14:46;;;;;;;6.03;4.60;;;;;;;23.50;66.59;99619.34;5091070;28;20298;-80
2022/06/04 05:17:13;;;;;;;11.13;6.60;;;;;;;23.63;66.27;99623.97;5090843;28;20238;-81
2022/06/04 05:19:39;;;;;;;6.32;5.20;;;;;;;23.71;64.84;99627.31;5090780;28;20210;-85
2022/06/04 05:22:05;;;;;;;8.02;5.18;;;;;;;23.88;65.80;99622.69;5090665;28;20240;-80
2022/06/04 05:24:34;;;;;;;14.45;4.40;;;;;;;24.00;65.68;99625.63;5090679;28;20692;-80
2022/06/04 05:27:02;;;;;;;7.30;4.75;;;;;;;24.11;64.64;99622.50;5090831;28;20624;-85
2022/06/04 05:29:29;;;;;;;6.57;5.10;;;;;;;24.26;64.38;99619.88;5090864;28;20218;-82
2022/06/04 05:31:57;;;;;;;8.20;4.97;;;;;;;24.43;65.29;99630.06;5090612;28;20311;-82
2022/06/04 05:34:25;;;;;;;10.43;4.65;;;;;;;24.56;64.61;99625.78;5090811;28;20853;-85
2022/06/04 05:36:53;;;;;;;8.75;4.65;;;;;;;24.82;65.78;99632.22;5090813;28;20234;-84
2022/06/04 05:39:20;;;;;;;8.10;4.72;;;;;;;24.91;62.87;99628.47;5090730;28;20256;-81
2022/06/04 05:41:46;;;;;;;8.05;5.00;;;;;;;25.14;62.17;99622.22;5090418;28;20234;-85
2022/06/04 05:44:13;;;;;;;5.93;4.40;;;;;;;25.24;61.42;99625.28;5090370;28;20752;-84
2022/06/04 05:46:42;;;;;;;6.60;4.43;;;;;;;25.21;60.57;99617.81;5090283;28;20279;-84
2022/06/04 05:49:08;;;;;;;6.68;4.40;;;;;;;25.32;59.25;99630.34;5090782;28;20234;-82
2022/06/04 05:51:35;;;;;;;7.90;4.60;;;;;;;25.55;62.71;99613.56;5090762;28;20660;-81
2022/06/04 05:54:02;;;;;;;14.93;5.40;;;;;;;25.72;60.03;99614.84;5090766;28;20662;-82
2022/06/04 05:56:30;;;;;;;5.90;4.50;;;;;;;25.74;58.92;99618.88;5090659;28;20620;-85
2022/06/04 05:58:58;;;;;;;12.70;4.68;;;;;;;25.88;58.54;99619.72;5090112;28;20777;-84
2022/06/04 06:01:27;;;;;;;7.65;4.45;;;;;;;26.13;61.19;99616.59;5090423;28;20241;-82
2022/06/04 06:03:54;;;;;;;13.02;5.63;;;;;;;26.21;58.00;99616.41;5090279;28;20214;-84
2022/06/04 06:06:23;;;;;;;7.05;4.60;;;;;;;26.31;56.91;99622.03;5090082;28;20241;-81
2022/06/04 06:08:51;;;;;;;7.18;5.35;;;;;;;26.32;57.74;99626.28;5089825;28;20230;-82
2022/06/04 06:11:19;;;;;;;12.40;9.00;;;;;;;26.39;56.51;99627.09;5089128;28;20240;-82
2022/06/04 06:13:47;;;;;;;7.22;4.53;;;;;;;26.53;58.05;99632.38;5090220;28;20730;-81
2022/06/04 06:16:16;;;;;;;7.20;4.30;;;;;;;26.62;56.47;99632.00;5089976;28;20234;-85
2022/06/04 06:18:43;;;;;;;8.27;4.30;;;;;;;26.80;56.19;99633.19;5089884;28;20214;-81
2022/06/04 06:21:11;;;;;;;7.07;4.35;;;;;;;26.78;54.51;99633.38;5090178;28;20715;-79
2022/06/04 06:23:38;;;;;;;5.88;4.25;;;;;;;26.73;58.67;99627.94;5090147;28;20217;-85
2022/06/04 06:26:06;;;;;;;12.75;5.00;;;;;;;27.00;58.64;99623.47;5089808;28;20234;-83
2022/06/04 06:28:34;;;;;;;6.90;4.70;;;;;;;27.23;54.16;99628.31;5089858;28;20237;-79
2022/06/04 06:31:00;;;;;;;8.10;4.68;;;;;;;27.60;59.03;99623.31;5089998;28;20221;-79
2022/06/04 06:33:26;;;;;;;4.80;4.30;;;;;;;27.95;54.07;99622.97;5089965;28;20220;-81
2022/06/04 06:35:56;;;;;;;5.95;4.40;;;;;;;28.02;52.71;99626.38;5089708;28;20226;-79
2022/06/04 06:38:22;;;;;;;6.63;4.18;;;;;;;28.14;52.96;99623.88;5089711;28;20218;-80
2022/06/04 06:40:48;;;;;;;5.32;4.45;;;;;;;28.29;54.14;99621.75;5089397;28;20742;-79
2022/06/04 06:43:15;;;;;;;6.70;4.30;;;;;;;28.23;51.73;99621.81;5089725;28;20209;-79
2022/06/04 06:45:41;;;;;;;5.05;4.28;;;;;;;28.35;52.39;99625.34;5089520;28;20590;-79
2022/06/04 06:48:08;;;;;;;10.73;4.38;;;;;;;28.36;50.66;99629.59;5089417;28;20352;-83
2022/06/04 06:50:35;;;;;;;5.85;4.55;;;;;;;28.05;51.35;99615.44;5089382;28;20228;-80
2022/06/04 06:53:02;;;;;;;9.68;4.90;;;;;;;28.32;51.46;99621.31;5089736;28;20210;-79
2022/06/04 06:55:28;;;;;;;8.13;4.18;;;;;;;28.66;53.66;99622.72;5089168;28;20221;-81
2022/06/04 06:57:54;;;;;;;8.05;4.30;;;;;;;29.02;52.39;99615.91;5089500;28;20229;-85
2022/06/04 07:00:21;;;;;;;5.47;4.60;;;;;;;28.92;50.01;99620.88;5089259;28;20210;-83
2022/06/04 07:02:47;;;;;;;7.20;4.38;;;;;;;29.03;51.74;99622.81;5089777;28;20229;-80
2022/06/04 07:05:14;;;;;;;9.20;4.63;;;;;;;29.42;52.41;99620.75;5089313;28;20217;-82
2022/06/04 07:07:40;;;;;;;7.40;4.97;;;;;;;29.59;50.31;99625.44;5089244;28;20237;-80
2022/06/04 07:10:07;;;;;;;6.03;4.88;;;;;;;29.46;53.54;99621.09;5089122;28;20218;-79
2022/06/04 07:12:33;;;;;;;7.55;4.50;;;;;;;29.81;53.75;99612.59;5089243;28;20225;-82
2022/06/04 07:15:00;;;;;;;6.80;4.30;;;;;;;30.10;50.82;99610.97;5089260;28;20206;-82
2022/06/04 07:17:27;;;;;;;6.85;4.60;;;;;;;29.78;48.87;99606.72;5089000;28;20355;-79
2022/06/04 07:19:53;;;;;;;4.70;4.25;;;;;;;30.07;50.92;99606.13;5089130;28;20217;-79
2022/06/04 07:22:19;;;;;;;5.10;4.60;;;;;;;29.92;49.85;99602.09;5088944;28;20238;-79
2022/06/04 07:24:45;;;;;;;6.38;4.72;;;;;;;30.09;51.63;99599.59;5089187;28;20591;-82
2022/06/04 07:27:11;;;;;;;5.30;4.80;;;;;;;30.14;52.15;99598.94;5088781;28;20230;-83
2022/06/04 07:29:38;;;;;;;6.95;4.22;;;;;;;30.41;50.72;99592.22;5089031;28;20605;-79
2022/06/04 07:32:05;;;;;;;6.35;4.70;;;;;;;30.61;49.16;99593.75;5089018;28;20780;-82
2022/06/04 07:34:32;;;;;;;5.95;4.82;;;;;;;30.36;48.63;99589.47;5088885;28;20700;-79
2022/06/04 07:36:58;;;;;;;5.97;4.85;;;;;;;30.12;53.50;99588.59;5089250;28;20279;-82
2022/06/04 07:39:24;;;;;;;9.05;4.63;;;;;;;30.54;53.33;99588.56;5088515;28;20336;-83
2022/06/04 07:41:53;;;;;;;5.97;4.35;;;;;;;30.34;48.88;99583.63;5089052;28;20226;-80
2022/06/04 07:44:21;;;;;;;9.23;4.93;;;;;;;30.58;50.70;99581.00;5088961;28;20210;-82
2022/06/04 07:46:48;;;;;;;7.50;4.88;;;;;;;30.82;50.38;99579.97;5088772;28;20230;-79
2022/06/04 07:49:15;;;;;;;7.07;4.85;;;;;;;30.90;49.91;99577.00;5088709;28;20230;-82
2022/06/04 07:51:43;;;;;;;6.50;4.72;;;;;;;30.98;47.76;99580.28;5088657;28;20242;-82
2022/06/04 07:54:10;;;;;;;5.13;4.45;;;;;;;31.04;50.01;99576.72;5088616;28;20672;-80
2022/06/04 07:56:36;;;;;;;9.45;4.50;;;;;;;30.76;48.89;99575.59;5088709;28;20238;-83
2022/06/04 07:59:03;;;;;;;6.30;4.30;;;;;;;30.87;48.60;99579.28;5088786;28;20210;-80
2022/06/04 08:01:30;;;;;;;6.15;4.20;;;;;;;30.80;46.68;99579.41;5088350;28;20236;-83
2022/06/04 08:03:57;;;;;;;5.07;4.45;;;;;;;30.97;46.22;99582.13;5088500;28;20218;-83
2022/06/04 08:06:23;;;;;;;6.57;4.18;;;;;;;30.58;48.02;99581.00;5088244;28;20229;-79
2022/06/04 08:08:54;;;;;;;8.30;4.50;;;;;;;30.69;48.34;99572.28;5088510;28;20241;-83
2022/06/04 08:11:35;;;;;;;6.68;4.28;;;;;;;30.94;49.20;99565.97;5088578;28;20226;-80
2022/06/04 08:14:06;;;;;;;5.88;4.30;;;;;;;31.09;49.71;99576.84;5088695;28;20609;-83
2022/06/04 08:16:33;;;;;;;5.93;4.43;;;;;;;31.51;47.13;99579.28;5088451;28;20655;-83
2022/06/04 08:18:59;;;;;;;5.55;4.47;;;;;;;31.55;46.16;99569.81;5088355;28;20206;-80
2022/06/04 08:21:26;;;;;;;6.13;4.10;;;;;;;31.73;45.34;99572.25;5088140;28;20229;-80
2022/06/04 08:23:53;;;;;;;4.70;4.20;;;;;;;31.77;44.89;99573.41;5088333;28;20579;-83
2022/06/04 08:26:19;;;;;;;6.75;4.13;;;;;;;31.75;45.52;99564.09;5088262;28;20234;-80
2022/06/04 08:28:45;;;;;;;8.38;4.38;;;;;;;31.83;45.71;99573.50;5088035;28;20230;-79
2022/06/04 08:31:14;;;;;;;4.90;4.35;;;;;;;31.84;45.43;99564.53;5088031;28;20245;-80
2022/06/04 08:33:41;;;;;;;4.75;4.25;;;;;;;31.90;47.13;99560.91;5089803;28;20210;-80
2022/06/04 08:36:09;;;;;;;6.30;4.20;;;;;;;31.78;45.14;99559.13;5091646;28;20782;-83
2022/06/04 08:38:36;;;;;;;6.60;4.28;;;;;;;31.90;45.38;99558.28;5091689;28;20217;-80
2022/06/04 08:41:05;;;;;;;4.75;4.25;;;;;;;32.13;44.87;99555.50;5091590;28;20240;-81
2022/06/04 08:43:38;;;;;;;7.07;4.18;;;;;;;32.33;47.04;99559.50;5091615;28;20213;-82
2022/06/04 08:46:14;;;;;;;5.50;4.13;;;;;;;32.29;43.52;99553.91;5091928;28;20318;-83
2022/06/04 08:48:42;;;;;;;8.30;4.70;;;;;;;32.30;44.51;99558.16;5091490;28;20229;-82
2022/06/04 08:51:19;;;;;;;5.22;4.50;;;;;;;31.98;44.14;99553.41;5091777;28;20602;-79
2022/06/04 08:53:50;;;;;;;5.70;4.45;;;;;;;31.92;46.17;99554.38;5091714;28;20219;-82
2022/06/04 08:59:18;;;;;;;8.52;4.57;;;;;;;31.96;45.93;99552.06;5091457;28;20214;-80
2022/06/04 09:01:48;;;;;;;5.03;4.18;;;;;;;31.78;46.07;99553.06;5091257;28;20230;-80
2022/06/04 09:04:30;;;;;;;8.30;4.40;;;;;;;32.07;45.33;99550.38;5091187;28;20218;-80
2022/06/04 09:07:02;;;;;;;6.88;4.82;;;;;;;31.84;44.47;99553.94;5091080;28;20497;-83
2022/06/04 09:09:34;;;;;;;5.30;4.70;;;;;;;31.50;47.46;99551.22;5091144;28;20234;-83
2022/06/04 09:12:08;;;;;;;7.22;4.95;;;;;;;31.60;45.72;99548.78;5090989;28;20234;-82
2022/06/04 09:14:38;;;;;;;6.90;5.20;;;;;;;31.73;46.06;99551.09;5091479;28;20725;-83
2022/06/04 09:17:10;;;;;;;7.43;4.80;;;;;;;31.90;45.24;99552.97;5091166;28;20618;-83
2022/06/04 09:19:39;;;;;;;5.18;4.10;;;;;;;31.87;42.88;99550.81;5090955;28;20224;-83
2022/06/04 09:22:16;;;;;;;4.47;4.05;;;;;;;31.92;42.98;99548.28;5090907;28;20229;-83
2022/06/04 09:24:42;;;;;;;6.95;4.30;;;;;;;31.73;42.91;99550.31;5090948;28;20574;-81
2022/06/04 09:27:28;;;;;;;6.20;4.18;;;;;;;31.51;44.77;99552.84;5090883;28;20723;-83
2022/06/04 09:30:12;;;;;;;5.07;4.18;;;;;;;31.50;46.32;99545.94;5090821;28;20190;-81
2022/06/04 09:32:48;;;;;;;10.35;4.43;;;;;;;31.45;45.05;99544.03;5090935;28;20230;-80
2022/06/04 09:35:16;;;;;;;9.30;5.47;;;;;;;31.38;46.11;99553.91;5090996;28;20217;-81
2022/06/04 09:37:44;;;;;;;6.50;4.32;;;;;;;31.40;47.77;99551.06;5090510;28;20291;-80
2022/06/04 09:40:20;;;;;;;7.82;4.47;;;;;;;31.42;45.00;99549.00;5090744;28;20216;-83
2022/06/04 09:42:47;;;;;;;6.82;4.53;;;;;;;31.33;46.25;99546.69;5090459;28;20229;-81
2022/06/04 09:45:22;;;;;;;5.53;4.22;;;;;;;31.29;45.19;99540.25;5090360;28;20217;-81
2022/06/04 09:47:53;;;;;;;5.97;4.07;;;;;;;31.32;45.49;99534.50;5090492;28;20260;-83
2022/06/04 09:50:24;;;;;;;6.65;4.20;;;;;;;31.10;47.69;99530.91;5090551;28;20214;-83
2022/06/04 09:53:16;;;;;;;5.65;4.40;;;;;;;31.49;48.98;99533.78;5090500;28;20222;-83
2022/06/04 09:55:47;;;;;;;6.15;4.10;;;;;;;31.35;47.35;99527.97;5090437;28;20233;-83
2022/06/04 09:58:19;;;;;;;9.00;4.43;;;;;;;31.56;47.00;99529.97;5090537;28;20616;-82
2022/06/04 10:00:56;;;;;;;6.25;4.60;;;;;;;31.66;47.58;99529.31;5090418;28;20226;-83
2022/06/04 10:03:22;;;;;;;7.68;4.57;;;;;;;32.07;50.46;99519.44;5090535;28;20209;-80
2022/06/04 10:05:51;;;;;;;7.05;4.45;;;;;;;32.58;46.39;99533.44;5090406;28;20257;-81
2022/06/04 10:08:22;;;;;;;4.63;4.00;;;;;;;32.67;43.02;99529.31;5090092;28;20716;-81
2022/06/04 10:10:49;;;;;;;4.50;4.10;;;;;;;32.84;41.11;99525.81;5090036;28;20229;-80
2022/06/04 10:16:14;;;;;;;6.47;3.95;;;;;;;32.78;41.26;99521.50;5090245;28;20225;-84
2022/06/04 10:18:51;;;;;;;5.43;4.30;;;;;;;32.44;40.78;99521.56;5089958;28;20260;-80
2022/06/04 10:21:20;;;;;;;6.00;4.07;;;;;;;32.40;43.75;99512.50;5090311;28;20237;-80
2022/06/04 10:23:49;;;;;;;8.57;4.40;;;;;;;32.67;42.94;99508.13;5090004;28;20250;-83
2022/06/04 10:26:38;;;;;;;5.70;4.38;;;;;;;32.98;43.77;99507.69;5089927;28;20233;-84
2022/06/04 10:29:37;;;;;;;7.50;4.75;;;;;;;32.65;42.63;99504.94;5090007;28;20226;-80
2022/06/04 10:32:16;;;;;;;6.38;4.30;;;;;;;32.87;42.55;99497.00;5089875;28;20237;-80
2022/06/04 10:34:53;;;;;;;6.95;4.80;;;;;;;32.94;43.23;99496.81;5089689;28;20216;-81
2022/06/04 10:37:32;;;;;;;6.35;4.50;;;;;;;32.84;44.89;99488.72;5089678;28;20226;-83
2022/06/04 10:40:16;;;;;;;7.80;4.95;;;;;;;32.39;44.49;99489.72;5089811;28;20209;-80
2022/06/04 10:42:51;;;;;;;5.22;4.55;;;;;;;32.35;44.73;99485.94;5089738;28;20645;-81
2022/06/04 10:45:25;;;;;;;7.30;4.88;;;;;;;32.42;47.38;99483.94;5089722;28;20212;-81
2022/06/04 10:48:11;;;;;;;5.25;4.70;;;;;;;32.38;45.25;99482.84;5089820;28;20715;-81
2022/06/04 10:53:43;;;;;;;5.20;4.70;;;;;;;32.32;46.95;99483.78;5089592;28;20301;-83
2022/06/04 10:56:16;;;;;;;5.65;4.70;;;;;;;32.40;46.14;99483.38;5088703;28;20287;-80
2022/06/04 10:58:50;;;;;;;6.40;4.55;;;;;;;32.63;46.64;99464.66;5089455;28;20212;-80
2022/06/04 11:01:25;;;;;;;6.22;4.65;;;;;;;32.59;45.53;99463.56;5088587;28;20228;-80
2022/06/04 11:04:00;;;;;;;8.70;4.80;;;;;;;32.31;45.44;99466.31;5089336;28;20233;-80
2022/06/04 11:06:30;;;;;;;5.55;5.05;;;;;;;32.05;48.70;99460.66;5089125;28;20614;-80
2022/06/04 11:09:01;;;;;;;6.82;4.55;;;;;;;31.83;47.19;99462.44;5089189;28;20516;-79
2022/06/04 11:11:34;;;;;;;6.15;4.70;;;;;;;31.68;45.99;99457.69;5089443;28;20833;-81
2022/06/04 11:14:06;;;;;;;5.72;4.68;;;;;;;31.92;45.71;99455.72;5089065;28;20214;-79
2022/06/04 11:16:39;;;;;;;13.90;8.88;;;;;;;32.22;47.85;99452.72;5089124;28;20261;-82
2022/06/04 11:19:10;;;;;;;10.00;7.88;;;;;;;32.48;47.58;99451.22;5089272;28;20241;-79
2022/06/04 11:21:42;;;;;;;10.38;4.90;;;;;;;32.53;47.12;99448.66;5089083;28;20264;-82
2022/06/04 11:24:16;;;;;;;7.10;4.60;;;;;;;32.62;43.76;99452.47;5088971;28;20267;-79
2022/06/04 11:26:47;;;;;;;5.68;4.68;;;;;;;32.72;47.12;99443.03;5088678;28;20229;-82
2022/06/04 11:29:14;;;;;;;8.15;4.85;;;;;;;32.88;46.53;99431.56;5088876;28;20255;-80
2022/06/04 11:31:52;;;;;;;10.25;6.30;;;;;;;32.97;45.76;99435.38;5089023;28;20226;-80
2022/06/04 11:34:42;;;;;;;7.80;5.13;;;;;;;32.78;44.63;99428.81;5088967;28;20213;-78
2022/06/04 11:37:17;;;;;;;7.05;5.10;;;;;;;32.56;45.27;99432.28;5088810;28;20230;-82
2022/06/04 11:40:03;;;;;;;7.45;5.95;;;;;;;32.22;45.39;99421.75;5088440;28;20217;-85
2022/06/04 11:42:52;;;;;;;7.90;4.72;;;;;;;32.01;46.81;99425.19;5088554;28;20723;-84
2022/06/04 11:45:35;;;;;;;7.25;5.22;;;;;;;31.83;46.77;99425.41;5088882;28;20244;-80
2022/06/04 11:48:20;;;;;;;8.88;4.57;;;;;;;31.78;45.36;99426.94;5087986;28;20234;-84
2022/06/04 11:50:55;;;;;;;5.82;4.55;;;;;;;31.71;47.39;99421.03;5088677;28;20666;-84
2022/06/04 11:53:37;;;;;;;6.45;5.60;;;;;;;31.78;47.94;99421.66;5089043;28;20233;-81
2022/06/04 11:56:08;;;;;;;9.45;5.07;;;;;;;31.95;48.46;99418.22;5088566;28;20723;-84
2022/06/04 11:59:01;;;;;;;7.55;4.30;;;;;;;32.26;48.20;99411.50;5088837;28;20210;-80
2022/06/04 12:01:33;;;;;;;6.18;4.65;;;;;;;32.63;48.16;99411.69;5088486;28;20750;-84
2022/06/04 12:04:05;;;;;;;7.05;4.53;;;;;;;32.74;46.47;99395.94;5088757;28;20215;-79
2022/06/04 12:06:38;;;;;;;8.70;4.97;;;;;;;32.59;45.67;99415.09;5088512;28;20294;-82